Time;durP1;ratioP1;P1;durP2;ratioP2;P2;SDS_P1;SDS_P2;PMS_P1;PMS_P2;Temp;Humidity;BMP_temperature;BMP_pressure;BME280_temperature;BME280_humidity;BME280_pressure;Samples;Min_cycle;Max_cycle;Signal;HPM_P1;HPM_P2
2021/01/18 00:04:51;;;;;;;43.10;23.00;;;;;;;0.55;73.60;101897.53;10120152;28;20050;-67
2021/01/18 00:09:47;;;;;;;37.45;21.25;;;;;;;0.52;73.92;101902.56;10127333;28;20100;-67
2021/01/18 00:14:43;;;;;;;36.50;20.98;;;;;;;0.53;73.96;101891.56;10128809;28;20061;-67
2021/01/18 00:19:39;;;;;;;39.47;22.35;;;;;;;0.61;73.87;101891.28;10143292;28;20064;-67
2021/01/18 00:24:35;;;;;;;40.50;22.38;;;;;;;0.50;74.53;101877.75;10118329;28;20088;-67
2021/01/18 00:29:31;;;;;;;39.17;23.15;;;;;;;0.54;74.64;101878.94;10123963;28;20039;-67
2021/01/18 00:34:27;;;;;;;39.15;22.23;;;;;;;0.49;75.33;101886.84;10123338;28;20050;-65
2021/01/18 00:39:22;;;;;;;42.95;22.10;;;;;;;0.39;75.90;101881.97;10128250;28;20054;-66
2021/01/18 00:44:18;;;;;;;40.55;22.98;;;;;;;0.49;75.53;101876.09;10117229;28;20053;-65
2021/01/18 00:49:14;;;;;;;42.10;21.98;;;;;;;0.39;75.88;101871.22;10124556;28;20089;-66
2021/01/18 00:54:10;;;;;;;39.38;22.20;;;;;;;0.38;76.41;101866.88;10124994;28;20050;-67
2021/01/18 00:59:06;;;;;;;46.10;24.25;;;;;;;0.43;76.48;101872.41;10122944;28;20062;-66
2021/01/18 01:04:03;;;;;;;45.45;24.83;;;;;;;0.47;76.95;101862.88;10115396;28;20425;-66
2021/01/18 01:09:00;;;;;;;44.90;25.13;;;;;;;0.47;76.81;101852.09;10127146;28;20051;-67
2021/01/18 01:13:56;;;;;;;45.45;23.63;;;;;;;0.54;76.80;101844.78;10120461;28;20059;-67
2021/01/18 01:18:52;;;;;;;45.65;24.55;;;;;;;0.48;77.14;101851.03;10126515;28;20047;-67
2021/01/18 01:23:48;;;;;;;44.63;25.02;;;;;;;0.43;77.56;101860.84;10121696;28;20441;-67
2021/01/18 01:28:45;;;;;;;47.53;24.23;;;;;;;0.39;77.96;101865.81;10122036;28;20054;-67
2021/01/18 01:33:41;;;;;;;46.85;25.67;;;;;;;0.37;78.07;101849.09;10115002;28;20437;-68
2021/01/18 01:38:37;;;;;;;49.65;25.20;;;;;;;0.48;77.65;101842.97;10122364;28;20065;-67
2021/01/18 01:43:33;;;;;;;48.40;25.73;;;;;;;0.52;77.94;101849.56;10119186;28;20433;-67
2021/01/18 01:48:29;;;;;;;48.47;25.20;;;;;;;0.52;77.86;101848.75;10135864;28;20456;-67
2021/01/18 01:53:30;;;;;;;49.22;27.52;;;;;;;0.32;78.82;101855.13;10115485;28;20054;-67
2021/01/18 01:58:27;;;;;;;50.83;24.55;;;;;;;0.31;79.05;101841.91;10125603;28;20137;-67
2021/01/18 02:08:36;;;;;;;54.65;25.90;;;;;;;0.32;78.99;101838.16;10809719;23;20045;-66
2021/01/18 02:14:01;;;;;;;54.67;25.77;;;;;;;0.33;79.48;101837.13;10196740;28;20064;-65
2021/01/18 02:19:16;;;;;;;55.80;27.90;;;;;;;0.34;79.60;101836.09;10193416;28;20072;-65
2021/01/18 02:24:22;;;;;;;51.83;26.27;;;;;;;0.44;79.54;101831.00;10182033;28;20092;-68
2021/01/18 02:29:50;;;;;;;52.03;28.40;;;;;;;0.36;80.41;101831.31;10177772;28;20046;-68
2021/01/18 02:35:02;;;;;;;49.97;27.33;;;;;;;0.51;79.78;101826.41;10182116;28;20116;-69
2021/01/18 02:40:06;;;;;;;58.42;28.80;;;;;;;0.38;80.08;101821.16;10179459;28;20479;-68
2021/01/18 02:45:03;;;;;;;55.05;27.30;;;;;;;0.60;79.71;101824.22;10186950;28;20058;-66
2021/01/18 02:50:02;;;;;;;58.92;30.15;;;;;;;0.43;80.36;101823.97;10185305;28;20630;-68
2021/01/18 02:54:58;;;;;;;66.18;30.05;;;;;;;0.40;80.88;101813.69;10174782;28;20131;-69
2021/01/18 02:59:58;;;;;;;56.80;29.73;;;;;;;0.56;80.37;101810.41;10179596;28;20484;-67
2021/01/18 03:05:06;;;;;;;55.20;29.33;;;;;;;0.66;80.46;101822.50;10188947;28;20053;-67
2021/01/18 03:10:19;;;;;;;60.13;29.20;;;;;;;0.68;80.26;101820.41;10182488;28;20522;-70
2021/01/18 03:15:17;;;;;;;65.30;31.53;;;;;;;0.69;80.39;101812.09;10178374;28;20458;-67
2021/01/18 03:20:14;;;;;;;62.42;30.25;;;;;;;0.25;82.79;101821.28;10186380;28;20054;-67
2021/01/18 03:25:11;;;;;;;64.68;30.02;;;;;;;0.52;81.53;101819.97;10184543;28;20634;-68
2021/01/18 03:30:07;;;;;;;68.80;29.95;;;;;;;0.71;80.91;101809.19;10184458;28;20054;-68
2021/01/18 03:35:04;;;;;;;61.85;30.95;;;;;;;0.71;81.19;101810.00;10184238;28;20096;-68
2021/01/18 03:40:00;;;;;;;63.42;28.67;;;;;;;0.80;81.15;101808.66;10185649;28;20579;-68
2021/01/18 03:44:56;;;;;;;73.43;31.23;;;;;;;0.86;81.07;101806.94;10186729;28;20129;-69
2021/01/18 03:49:52;;;;;;;64.70;30.73;;;;;;;0.84;81.31;101798.28;10183721;28;20046;-67
2021/01/18 03:54:48;;;;;;;63.97;29.65;;;;;;;0.92;81.62;101811.41;10187388;28;20046;-67
2021/01/18 03:59:45;;;;;;;56.92;28.95;;;;;;;0.95;81.81;101808.28;10187801;28;20050;-65
2021/01/18 04:04:40;;;;;;;60.03;30.67;;;;;;;0.91;81.94;101804.41;10184068;28;21246;-66
2021/01/18 04:09:37;;;;;;;59.35;28.70;;;;;;;0.94;82.67;101792.34;10181058;28;20048;-68
2021/01/18 04:14:33;;;;;;;66.40;28.23;;;;;;;0.89;83.43;101790.34;10179500;28;20655;-67
2021/01/18 04:19:31;;;;;;;69.97;26.42;;;;;;;0.86;85.10;101793.50;10183006;28;20104;-65
2021/01/18 04:24:27;;;;;;;68.85;27.23;;;;;;;0.92;84.90;101784.47;10181772;28;20049;-66
2021/01/18 04:29:23;;;;;;;65.75;27.42;;;;;;;0.96;85.79;101784.88;10178803;28;20160;-66
2021/01/18 04:34:19;;;;;;;65.25;27.67;;;;;;;1.04;85.46;101785.38;10178616;28;20711;-66
2021/01/18 04:39:15;;;;;;;65.43;26.25;;;;;;;1.13;85.16;101790.44;10179878;28;20503;-67
2021/01/18 04:44:16;;;;;;;67.60;27.15;;;;;;;0.98;85.64;101775.50;10184364;28;20050;-69
2021/01/18 04:49:14;;;;;;;58.72;24.17;;;;;;;1.04;85.72;101771.91;10192650;28;20038;-66
2021/01/18 04:54:17;;;;;;;58.60;23.38;;;;;;;1.13;85.63;101776.97;10182149;28;20053;-67
2021/01/18 04:59:20;;;;;;;58.08;26.15;;;;;;;1.19;85.59;101773.38;10183384;28;20136;-67
2021/01/18 05:04:27;;;;;;;61.63;23.80;;;;;;;1.16;86.32;101779.19;10172673;28;20425;-67
2021/01/18 05:09:29;;;;;;;66.68;26.08;;;;;;;1.16;86.73;101780.03;10175814;28;20046;-67
2021/01/18 05:14:26;;;;;;;59.05;24.85;;;;;;;1.20;86.37;101778.50;10181522;28;20046;-66
2021/01/18 05:19:26;;;;;;;51.72;22.90;;;;;;;1.23;86.25;101782.59;10169704;28;20061;-67
2021/01/18 05:24:23;;;;;;;58.08;20.92;;;;;;;1.05;87.05;101778.94;10180429;28;20080;-67
2021/01/18 05:29:29;;;;;;;52.45;20.95;;;;;;;1.14;86.58;101792.06;10180263;28;20077;-67
2021/01/18 05:34:28;;;;;;;47.53;20.77;;;;;;;1.12;87.00;101783.41;10195731;28;20522;-66
2021/01/18 05:39:32;;;;;;;52.88;19.85;;;;;;;1.20;86.74;101770.41;10185233;28;20112;-67
2021/01/18 05:44:31;;;;;;;;;;;;;;;1.21;86.71;101776.66;10187622;28;20050;-68
2021/01/18 05:49:38;;;;;;;40.30;19.48;;;;;;;1.31;86.42;101766.13;10176017;28;19972;-66
2021/01/18 05:54:35;;;;;;;50.35;19.65;;;;;;;1.28;86.57;101758.50;10173292;28;20550;-66
2021/01/18 05:59:31;;;;;;;55.25;21.08;;;;;;;1.30;86.64;101764.50;10195409;28;20165;-67
2021/01/18 06:04:28;;;;;;;45.42;19.67;;;;;;;1.35;86.39;101764.63;10171819;28;20050;-67
2021/01/18 06:09:43;;;;;;;44.75;18.58;;;;;;;1.34;87.26;101764.84;10174278;28;20084;-68
2021/01/18 06:14:39;;;;;;;44.85;18.23;;;;;;;1.32;87.74;101767.75;10178348;28;20751;-69
2021/01/18 06:19:35;;;;;;;43.45;16.80;;;;;;;1.28;88.31;101772.00;10186636;28;20044;-68
2021/01/18 06:24:34;;;;;;;51.28;17.95;;;;;;;1.12;89.22;101772.63;10193872;28;20100;-69
2021/01/18 06:29:41;;;;;;;41.90;17.15;;;;;;;1.35;88.93;101780.78;10179053;28;20046;-68
2021/01/18 06:34:37;;;;;;;38.25;16.88;;;;;;;1.41;88.67;101787.94;10166027;28;20057;-69
2021/01/18 06:39:33;;;;;;;40.40;17.13;;;;;;;1.41;88.63;101792.50;10179862;28;20668;-64
2021/01/18 06:44:35;;;;;;;42.00;16.05;;;;;;;1.52;88.79;101788.22;10171826;28;20543;-66
2021/01/18 06:49:31;;;;;;;45.05;15.80;;;;;;;1.40;89.11;101794.38;10181730;28;20104;-67
2021/01/18 06:54:31;;;;;;;46.50;15.48;;;;;;;1.40;89.31;101797.09;10175999;28;20395;-65
2021/01/18 06:59:46;;;;;;;44.40;17.08;;;;;;;1.38;89.73;101788.41;10184337;28;20046;-68
2021/01/18 07:04:47;;;;;;;45.08;16.20;;;;;;;1.44;90.10;101787.50;10180713;28;20045;-67
2021/01/18 07:09:46;;;;;;;47.30;14.82;;;;;;;1.44;89.70;101792.06;10176571;28;20096;-65
2021/01/18 07:14:48;;;;;;;42.70;16.17;;;;;;;1.41;89.97;101798.72;10178742;28;20041;-67
2021/01/18 07:19:47;;;;;;;46.08;15.10;;;;;;;1.34;90.53;101808.78;10187988;28;20044;-67
2021/01/18 07:25:04;;;;;;;40.03;15.13;;;;;;;1.40;90.99;101796.28;10184378;28;20213;-65
2021/01/18 07:30:01;;;;;;;43.72;15.23;;;;;;;1.43;90.80;101802.00;10182824;28;20507;-67
2021/01/18 07:34:57;;;;;;;42.40;15.02;;;;;;;1.47;91.10;101797.00;10171285;28;20077;-65
2021/01/18 07:39:53;;;;;;;38.95;13.13;;;;;;;1.44;91.37;101792.06;10167892;28;20042;-67
2021/01/18 07:44:49;;;;;;;44.70;16.38;;;;;;;1.42;91.81;101788.78;10162240;28;20050;-68
2021/01/18 07:49:47;;;;;;;40.22;15.35;;;;;;;1.54;91.77;101786.13;10171978;28;20038;-68
2021/01/18 07:54:45;;;;;;;45.00;13.70;;;;;;;1.51;91.52;101783.84;10171963;28;20229;-67
2021/01/18 07:59:41;;;;;;;37.95;13.52;;;;;;;1.61;91.60;101786.81;10163741;28;20038;-67
2021/01/18 08:04:39;;;;;;;51.15;14.00;;;;;;;1.70;91.60;101785.44;10169547;28;20045;-67
2021/01/18 08:09:36;;;;;;;31.65;14.07;;;;;;;1.68;91.74;101777.56;10171712;28;20042;-66
2021/01/18 08:14:32;;;;;;;38.55;15.95;;;;;;;1.70;92.01;101768.44;10173201;28;20611;-66
2021/01/18 08:19:30;;;;;;;50.80;15.38;;;;;;;1.73;92.11;101768.78;10176463;28;20055;-67
2021/01/18 08:24:29;;;;;;;51.08;16.90;;;;;;;1.83;91.79;101762.81;10159451;28;20046;-67
2021/01/18 08:29:44;;;;;;;47.58;15.43;;;;;;;1.84;91.76;101759.88;10168769;28;20038;-68
2021/01/18 08:34:41;;;;;;;37.60;15.30;;;;;;;1.91;92.09;101748.19;10173041;28;20046;-68
2021/01/18 08:39:40;;;;;;;37.85;15.85;;;;;;;1.94;91.86;101742.31;10184527;28;20145;-68
2021/01/18 08:44:37;;;;;;;44.67;16.50;;;;;;;1.98;92.15;101738.91;10182782;28;20145;-68
2021/01/18 08:49:33;;;;;;;49.10;15.80;;;;;;;1.99;91.53;101728.94;10180717;28;20050;-67
2021/01/18 08:54:36;;;;;;;53.97;19.85;;;;;;;2.15;91.56;101722.81;10187319;28;20494;-68
2021/01/18 08:59:33;;;;;;;61.93;23.07;;;;;;;2.17;91.23;101725.28;10189787;28;20164;-68
2021/01/18 09:04:29;;;;;;;47.35;18.20;;;;;;;2.23;91.09;101719.75;10184080;28;20113;-68
2021/01/18 09:09:24;;;;;;;53.47;20.88;;;;;;;2.39;90.99;101712.81;10185725;28;20407;-68
2021/01/18 09:14:21;;;;;;;44.42;18.13;;;;;;;2.46;90.48;101712.66;10186907;28;20050;-68
2021/01/18 09:19:17;;;;;;;45.60;17.73;;;;;;;2.56;90.33;101723.66;10189289;28;20547;-67
2021/01/18 09:24:13;;;;;;;46.25;20.20;;;;;;;2.55;90.34;101716.59;10193533;28;20057;-68
2021/01/18 09:29:10;;;;;;;50.38;18.67;;;;;;;2.53;90.58;101724.16;10177323;28;20073;-67
2021/01/18 09:34:11;;;;;;;57.75;21.38;;;;;;;2.57;90.45;101719.91;10179079;28;20046;-67
2021/01/18 09:39:18;;;;;;;60.42;22.30;;;;;;;2.63;90.01;101718.94;10185856;28;20085;-68
2021/01/18 09:44:35;;;;;;;51.30;18.77;;;;;;;2.60;90.53;101721.28;10188344;28;20052;-68
2021/01/18 09:49:31;;;;;;;60.72;22.98;;;;;;;2.66;90.14;101713.06;10185471;28;20103;-68
2021/01/18 09:54:27;;;;;;;58.55;20.63;;;;;;;2.67;90.37;101714.72;10172004;28;20492;-68
2021/01/18 09:59:27;;;;;;;57.05;17.58;;;;;;;2.59;90.36;101706.97;10171137;28;20038;-67
2021/01/18 10:04:23;;;;;;;52.83;20.05;;;;;;;2.71;90.19;101699.66;10167043;28;20097;-68
2021/01/18 10:09:22;;;;;;;52.30;20.40;;;;;;;2.76;89.61;101706.22;10175233;28;20078;-67
2021/01/18 10:14:22;;;;;;;44.25;20.15;;;;;;;2.77;89.47;101697.88;10166710;28;20567;-68
2021/01/18 10:19:19;;;;;;;49.65;17.67;;;;;;;2.82;89.04;101689.88;10164605;28;20049;-68
2021/01/18 10:24:33;;;;;;;53.95;19.23;;;;;;;2.84;89.19;101684.22;10162857;28;20435;-68
2021/01/18 10:29:30;;;;;;;47.08;16.65;;;;;;;2.88;89.65;101672.69;10163523;28;20038;-68
2021/01/18 10:34:28;;;;;;;35.15;15.90;;;;;;;2.93;90.07;101664.69;10166614;28;20132;-66
2021/01/18 10:39:28;;;;;;;43.55;16.23;;;;;;;2.93;89.95;101648.47;10163217;28;20737;-67
2021/01/18 10:44:37;;;;;;;40.95;17.65;;;;;;;3.03;90.14;101637.00;10158462;28;20369;-67
2021/01/18 10:49:35;;;;;;;45.65;18.65;;;;;;;2.89;90.33;101633.81;10187137;28;20050;-67
2021/01/18 10:54:32;;;;;;;41.55;18.88;;;;;;;3.02;89.84;101619.19;10173996;28;20062;-67
2021/01/18 10:59:28;;;;;;;36.50;15.45;;;;;;;3.03;90.22;101609.19;10169657;28;20039;-67
2021/01/18 11:04:26;;;;;;;36.85;15.95;;;;;;;3.04;89.62;101611.66;10158232;28;20104;-67
2021/01/18 11:09:33;;;;;;;35.53;15.10;;;;;;;3.03;89.80;101599.19;10165723;28;20046;-68
2021/01/18 11:14:30;;;;;;;26.67;14.70;;;;;;;2.96;89.75;101593.13;10160268;28;20050;-68
2021/01/18 11:19:28;;;;;;;28.95;14.32;;;;;;;2.97;90.49;101589.38;10170248;28;20096;-67
2021/01/18 11:24:24;;;;;;;29.13;15.55;;;;;;;3.03;90.68;101582.97;10163866;28;20046;-67
2021/01/18 11:29:20;;;;;;;29.15;15.40;;;;;;;3.01;91.02;101579.69;10170396;28;20116;-67
2021/01/18 11:34:16;;;;;;;38.20;16.80;;;;;;;3.06;90.33;101577.06;10176456;28;20065;-67
2021/01/18 11:39:12;;;;;;;39.42;17.80;;;;;;;3.08;90.94;101558.72;10169345;28;20061;-67
2021/01/18 11:44:09;;;;;;;39.80;20.40;;;;;;;3.13;90.68;101549.88;10159155;28;20053;-67
2021/01/18 11:49:06;;;;;;;45.80;21.00;;;;;;;3.16;90.73;101550.22;10168208;28;20137;-67
2021/01/18 11:54:02;;;;;;;47.33;22.70;;;;;;;3.21;90.66;101540.56;10178626;28;20062;-67
2021/01/18 11:58:58;;;;;;;43.47;20.50;;;;;;;3.27;90.35;101534.97;10162644;28;20046;-67
2021/01/18 12:03:56;;;;;;;46.08;23.30;;;;;;;3.28;90.82;101523.09;10166924;28;20108;-68
2021/01/18 12:08:53;;;;;;;53.08;25.30;;;;;;;3.27;90.71;101521.47;10165156;28;20047;-67
2021/01/18 12:13:50;;;;;;;63.85;27.70;;;;;;;3.28;90.64;101512.28;10163729;28;20408;-67
2021/01/18 12:18:46;;;;;;;46.53;27.05;;;;;;;3.36;91.20;101508.31;10171508;28;20388;-68
2021/01/18 12:23:42;;;;;;;48.75;24.55;;;;;;;3.34;91.61;101502.34;10166726;28;20726;-68
2021/01/18 12:28:38;;;;;;;49.35;26.20;;;;;;;3.32;91.02;101499.09;10184646;28;20042;-68
2021/01/18 12:33:34;;;;;;;54.15;25.63;;;;;;;3.33;91.87;101495.31;10182224;28;20407;-67
2021/01/18 12:38:30;;;;;;;61.45;27.75;;;;;;;3.33;91.40;101490.72;10167033;28;20038;-67
2021/01/18 12:43:26;;;;;;;57.63;29.83;;;;;;;3.35;91.85;101487.78;10164959;28;20047;-68
2021/01/18 12:48:22;;;;;;;58.13;27.80;;;;;;;3.38;91.95;101489.97;10167773;28;20045;-68
2021/01/18 12:58:33;;;;;;;43.85;21.40;;;;;;;3.34;92.11;101478.84;10160777;28;20049;-68
2021/01/18 13:03:29;;;;;;;52.38;25.45;;;;;;;3.45;91.63;101454.63;10177531;28;20054;-68
2021/01/18 13:08:25;;;;;;;60.63;28.00;;;;;;;3.42;91.90;101442.44;10173345;28;20038;-68
2021/01/18 13:13:21;;;;;;;47.13;22.33;;;;;;;3.37;91.41;101440.50;10162703;28;20046;-68
2021/01/18 13:18:18;;;;;;;47.88;25.50;;;;;;;3.47;91.40;101430.88;10159038;28;20054;-68
2021/01/18 13:23:14;;;;;;;50.97;26.27;;;;;;;3.47;91.80;101426.28;10159969;28;20092;-68
2021/01/18 13:28:10;;;;;;;52.08;24.27;;;;;;;3.53;91.33;101430.69;10159556;28;20042;-68
2021/01/18 13:33:06;;;;;;;42.10;19.77;;;;;;;3.46;91.56;101430.06;10164890;28;20077;-68
2021/01/18 13:38:02;;;;;;;44.78;24.75;;;;;;;3.54;91.40;101432.31;10166464;28;20218;-68
2021/01/18 13:42:58;;;;;;;40.22;17.55;;;;;;;3.51;91.98;101429.31;10179195;28;20106;-68
2021/01/18 13:47:54;;;;;;;52.63;23.85;;;;;;;3.53;91.49;101425.28;10171161;28;20054;-68
2021/01/18 13:52:51;;;;;;;43.90;20.88;;;;;;;3.54;91.46;101424.19;10177933;28;20047;-68
2021/01/18 13:57:48;;;;;;;43.20;20.05;;;;;;;3.59;92.03;101405.31;10165424;28;20050;-68
2021/01/18 14:02:44;;;;;;;42.92;23.83;;;;;;;3.63;91.22;101407.53;10174712;28;20046;-68
2021/01/18 14:07:45;;;;;;;45.30;22.15;;;;;;;3.58;91.57;101405.59;10175684;28;20091;-67
2021/01/18 14:12:47;;;;;;;40.90;21.85;;;;;;;3.53;91.33;101409.06;10185892;28;20048;-67
2021/01/18 14:17:43;;;;;;;39.58;21.65;;;;;;;3.54;91.59;101405.25;10174534;28;20046;-67
2021/01/18 14:22:39;;;;;;;43.53;20.50;;;;;;;3.50;91.86;101406.84;10174437;28;20618;-67
2021/01/18 14:27:35;;;;;;;37.53;19.40;;;;;;;3.54;91.41;101405.25;10158713;28;20133;-67
2021/01/18 14:32:31;;;;;;;37.67;17.88;;;;;;;3.53;91.49;101402.84;10159096;28;20054;-67
2021/01/18 14:37:28;;;;;;;33.05;16.40;;;;;;;3.51;91.41;101394.16;10170019;28;20054;-67
2021/01/18 14:42:24;;;;;;;25.75;12.90;;;;;;;3.43;91.42;101403.50;10168877;28;20072;-67
2021/01/18 14:47:20;;;;;;;28.90;13.93;;;;;;;3.46;92.19;101403.03;10165970;28;20042;-67
2021/01/18 14:52:16;;;;;;;25.27;15.23;;;;;;;3.51;92.16;101394.97;10181945;28;20092;-67
2021/01/18 14:57:12;;;;;;;26.98;12.70;;;;;;;3.46;90.95;101392.22;10175438;28;20046;-67
2021/01/18 15:02:08;;;;;;;21.85;10.68;;;;;;;3.41;90.55;101389.44;10185173;28;20042;-67
2021/01/18 15:07:04;;;;;;;18.48;11.07;;;;;;;3.43;90.70;101391.88;10179630;28;20045;-67
2021/01/18 15:12:00;;;;;;;18.83;9.30;;;;;;;3.42;90.90;101390.28;10171329;28;20046;-67
2021/01/18 15:16:56;;;;;;;16.98;8.52;;;;;;;3.40;90.69;101389.69;10163775;28;20526;-67
2021/01/18 15:21:53;;;;;;;24.23;10.65;;;;;;;3.42;91.29;101391.06;10166552;28;20076;-67
2021/01/18 15:26:49;;;;;;;22.73;11.63;;;;;;;3.43;91.03;101387.28;10167637;28;20469;-68
2021/01/18 15:31:55;;;;;;;20.65;10.23;;;;;;;3.32;90.75;101391.78;10174418;28;20042;-68
2021/01/18 15:36:53;;;;;;;17.27;8.30;;;;;;;3.35;90.67;101385.06;10163912;28;20073;-67
2021/01/18 15:41:49;;;;;;;17.17;9.38;;;;;;;3.33;91.23;101393.41;10186512;28;20050;-67
2021/01/18 15:46:45;;;;;;;18.05;10.70;;;;;;;3.33;91.83;101388.00;10183347;28;20419;-67
2021/01/18 15:51:44;;;;;;;22.02;10.45;;;;;;;3.35;91.54;101382.34;10182822;28;20748;-68
2021/01/18 15:56:40;;;;;;;18.30;9.55;;;;;;;3.31;92.15;101384.72;10174880;28;20048;-67
2021/01/18 16:01:36;;;;;;;19.38;10.73;;;;;;;3.35;91.53;101379.66;10187851;28;20050;-68
2021/01/18 16:06:42;;;;;;;16.75;10.70;;;;;;;3.38;92.17;101381.84;10168071;28;20045;-67
2021/01/18 16:11:39;;;;;;;18.45;11.75;;;;;;;3.35;91.95;101377.75;10157201;28;20053;-67
2021/01/18 16:16:36;;;;;;;22.98;12.85;;;;;;;3.40;91.92;101358.06;10156353;28;20053;-68
2021/01/18 16:21:41;;;;;;;30.35;14.77;;;;;;;3.40;92.47;101377.00;10159615;28;20571;-66
2021/01/18 16:26:40;;;;;;;26.92;14.88;;;;;;;3.35;92.09;101374.25;10159003;28;20503;-64
2021/01/18 16:31:37;;;;;;;23.20;14.73;;;;;;;3.44;92.37;101370.03;10160256;28;20799;-67
2021/01/18 16:36:33;;;;;;;26.27;14.18;;;;;;;3.50;92.62;101366.28;10152957;28;20049;-65
2021/01/18 16:41:43;;;;;;;26.60;14.75;;;;;;;3.51;91.77;101367.94;10157599;28;20046;-63
2021/01/18 16:46:43;;;;;;;23.77;12.32;;;;;;;3.54;91.82;101353.09;10168756;28;20058;-67
2021/01/18 16:51:41;;;;;;;20.73;12.35;;;;;;;3.59;91.67;101359.34;10172988;28;20140;-66
2021/01/18 16:56:37;;;;;;;26.85;12.63;;;;;;;3.59;91.57;101353.94;10168799;28;20474;-66
2021/01/18 17:01:34;;;;;;;30.02;13.00;;;;;;;3.65;91.80;101346.69;10164367;28;20093;-67
2021/01/18 17:06:31;;;;;;;24.55;12.82;;;;;;;3.66;91.94;101347.50;10174735;28;20085;-66
2021/01/18 17:11:27;;;;;;;27.10;14.45;;;;;;;3.72;92.02;101352.72;10163953;28;20419;-65
2021/01/18 17:16:23;;;;;;;25.45;13.48;;;;;;;3.79;91.63;101347.09;10177217;28;20046;-66
2021/01/18 17:21:19;;;;;;;21.85;13.55;;;;;;;3.79;91.29;101353.31;10183522;28;20058;-67
2021/01/18 17:26:23;;;;;;;22.95;12.52;;;;;;;3.82;90.55;101345.78;10183463;28;20050;-66
2021/01/18 17:31:19;;;;;;;;;;;;;;;3.86;90.21;101342.28;10171906;28;20101;-66
2021/01/18 17:36:23;;;;;;;22.10;13.15;;;;;;;3.81;90.58;101342.25;10177166;28;20320;-65
2021/01/18 17:41:19;;;;;;;29.38;12.63;;;;;;;3.80;90.20;101348.72;10177169;28;20058;-68
2021/01/18 17:46:15;;;;;;;25.42;12.32;;;;;;;3.87;90.55;101346.63;10175679;28;20049;-67
2021/01/18 17:51:11;;;;;;;22.90;12.52;;;;;;;3.84;90.56;101344.44;10187028;28;20426;-68
2021/01/18 17:56:07;;;;;;;22.30;11.90;;;;;;;3.80;90.34;101344.13;10187919;28;20050;-68
2021/01/18 18:01:05;;;;;;;21.90;11.07;;;;;;;3.89;90.50;101340.97;10172926;28;20050;-65
2021/01/18 18:06:03;;;;;;;27.98;11.90;;;;;;;3.94;90.43;101344.50;10174238;28;20157;-66
2021/01/18 18:10:59;;;;;;;27.02;10.77;;;;;;;3.93;89.89;101342.91;10176671;28;20049;-65
2021/01/18 18:15:56;;;;;;;27.85;11.90;;;;;;;3.98;89.26;101356.47;10174319;28;20072;-66
2021/01/18 18:20:52;;;;;;;26.75;11.18;;;;;;;3.91;89.63;101350.44;10176540;28;20073;-65
2021/01/18 18:25:48;;;;;;;24.42;11.20;;;;;;;3.86;90.04;101358.53;10170652;28;20632;-65
2021/01/18 18:30:44;;;;;;;20.98;10.68;;;;;;;3.94;89.03;101355.34;10171239;28;20042;-66
2021/01/18 18:35:40;;;;;;;18.95;9.93;;;;;;;3.90;89.72;101354.25;10172189;28;20049;-65
2021/01/18 18:40:36;;;;;;;21.95;8.48;;;;;;;3.88;89.14;101353.69;10167476;28;20053;-65
2021/01/18 18:45:34;;;;;;;19.48;8.10;;;;;;;3.91;89.23;101339.63;10195513;28;20082;-68
2021/01/18 18:50:30;;;;;;;20.58;8.38;;;;;;;3.95;88.48;101348.88;10169632;28;20057;-67
2021/01/18 18:55:27;;;;;;;25.00;9.63;;;;;;;3.92;88.57;101335.88;10173004;28;20054;-68
2021/01/18 19:00:23;;;;;;;22.75;9.13;;;;;;;3.91;88.88;101334.22;10181268;28;20046;-67
2021/01/18 19:05:22;;;;;;;18.60;9.75;;;;;;;3.92;89.04;101330.44;10185940;28;20104;-66
2021/01/18 19:10:18;;;;;;;19.52;9.70;;;;;;;3.92;88.49;101333.16;10169768;28;20042;-67
2021/01/18 19:15:15;;;;;;;20.77;9.05;;;;;;;3.93;88.31;101321.25;10159797;28;20050;-67
2021/01/18 19:20:12;;;;;;;25.70;9.85;;;;;;;3.92;88.54;101325.03;10166015;28;20175;-67
2021/01/18 19:25:11;;;;;;;20.60;9.27;;;;;;;3.94;88.41;101325.56;10167790;28;20148;-67
2021/01/18 19:30:09;;;;;;;18.92;9.25;;;;;;;3.99;88.04;101325.63;10167679;28;20045;-67
2021/01/18 19:35:07;;;;;;;19.55;9.50;;;;;;;3.99;87.50;101325.63;10169005;28;20130;-66
2021/01/18 19:40:06;;;;;;;21.10;9.30;;;;;;;3.97;87.91;101325.06;10175983;28;20443;-66
2021/01/18 19:45:03;;;;;;;17.70;9.48;;;;;;;3.98;87.98;101317.78;10173221;28;20038;-67
2021/01/18 19:49:59;;;;;;;19.13;9.85;;;;;;;3.97;87.11;101344.00;10177643;28;20108;-67
2021/01/18 19:54:56;;;;;;;19.40;9.15;;;;;;;3.98;87.26;101351.03;10174162;28;20049;-67
2021/01/18 19:59:52;;;;;;;29.48;9.18;;;;;;;3.97;87.26;101341.31;10163394;28;20045;-67
2021/01/18 20:04:50;;;;;;;17.92;8.05;;;;;;;3.97;87.70;101345.91;10167185;28;20054;-66
2021/01/18 20:09:46;;;;;;;17.60;8.40;;;;;;;4.07;87.08;101343.28;10176672;28;20088;-66
2021/01/18 20:14:42;;;;;;;18.88;9.63;;;;;;;4.05;86.89;101341.91;10173137;28;20046;-67
2021/01/18 20:19:38;;;;;;;21.05;8.18;;;;;;;4.02;87.14;101335.13;10172895;28;20107;-66
2021/01/18 20:24:34;;;;;;;24.40;8.70;;;;;;;4.06;87.37;101338.13;10161220;28;20400;-67
2021/01/18 20:29:30;;;;;;;23.75;8.93;;;;;;;4.09;86.71;101334.91;10163496;28;20049;-68
2021/01/18 20:34:27;;;;;;;16.67;7.13;;;;;;;3.98;86.18;101317.78;10168323;28;20065;-67
2021/01/18 20:39:23;;;;;;;21.35;8.45;;;;;;;4.04;86.45;101332.13;10158376;28;20054;-66
2021/01/18 20:44:19;;;;;;;26.33;8.70;;;;;;;4.06;86.92;101330.00;10183304;28;20046;-66
2021/01/18 20:49:17;;;;;;;15.82;7.10;;;;;;;4.04;86.23;101353.78;10175699;28;20042;-66
2021/01/18 20:54:13;;;;;;;20.13;7.13;;;;;;;4.01;86.43;101333.47;10177108;28;20072;-66
2021/01/18 20:59:10;;;;;;;14.15;6.18;;;;;;;3.98;86.18;101334.81;10171914;28;20637;-66
2021/01/18 21:04:07;;;;;;;19.08;7.65;;;;;;;3.98;86.53;101340.22;10167747;28;20061;-65
2021/01/18 21:09:04;;;;;;;13.10;6.60;;;;;;;4.02;86.07;101328.91;10172261;28;20053;-64
2021/01/18 21:14:00;;;;;;;15.07;5.80;;;;;;;3.99;85.94;101336.47;10179392;28;20492;-72
2021/01/18 21:18:56;;;;;;;17.60;6.57;;;;;;;4.03;85.87;101341.34;10172821;28;20073;-66
2021/01/18 21:23:53;;;;;;;17.80;6.13;;;;;;;3.97;85.86;101332.38;10172907;28;20506;-69
2021/01/18 21:28:49;;;;;;;15.90;6.25;;;;;;;3.97;85.58;101322.38;10177880;28;20779;-68
2021/01/18 21:33:45;;;;;;;12.45;5.97;;;;;;;4.01;85.72;101319.94;10172473;28;21421;-68
2021/01/18 21:38:44;;;;;;;16.67;6.25;;;;;;;4.05;86.15;101317.56;10180776;28;20062;-68
2021/01/18 21:43:40;;;;;;;20.77;6.40;;;;;;;4.03;86.27;101325.13;10180000;28;20057;-66
2021/01/18 21:48:36;;;;;;;13.35;6.45;;;;;;;3.98;85.67;101320.47;10185538;28;20124;-66
2021/01/18 21:53:32;;;;;;;20.73;6.43;;;;;;;4.04;85.54;101321.31;10182851;28;21252;-67
2021/01/18 21:58:28;;;;;;;16.90;6.60;;;;;;;4.06;85.91;101324.59;10173640;28;20054;-66
2021/01/18 22:03:24;;;;;;;15.02;6.53;;;;;;;4.07;86.11;101315.41;10179473;28;20101;-66
2021/01/18 22:08:20;;;;;;;14.07;6.90;;;;;;;4.06;85.89;101313.75;10176815;28;20456;-67
2021/01/18 22:13:16;;;;;;;15.38;6.95;;;;;;;4.04;86.09;101313.19;10178257;28;20048;-67
2021/01/18 22:18:12;;;;;;;16.88;7.32;;;;;;;4.07;86.83;101320.81;10186063;28;20511;-67
2021/01/18 22:23:08;;;;;;;18.98;7.32;;;;;;;4.05;86.28;101317.56;10174530;28;20054;-67
2021/01/18 22:28:05;;;;;;;11.30;5.32;;;;;;;3.99;85.86;101314.81;10178800;28;20427;-67
2021/01/18 22:33:01;;;;;;;18.98;7.60;;;;;;;4.02;86.41;101297.25;10176045;28;20427;-67
2021/01/18 22:37:57;;;;;;;16.80;7.90;;;;;;;4.08;86.40;101303.50;10182522;28;20048;-68
2021/01/18 22:42:55;;;;;;;14.10;7.63;;;;;;;4.07;86.35;101310.00;10192670;28;20587;-68
2021/01/18 22:47:58;;;;;;;21.23;9.38;;;;;;;4.08;86.22;101311.59;10186677;28;20092;-68
2021/01/18 22:52:54;;;;;;;14.68;7.10;;;;;;;4.00;86.67;101294.78;10178168;28;20045;-70